Time;durP1;ratioP1;P1;durP2;ratioP2;P2;SDS_P1;SDS_P2;PMS_P1;PMS_P2;Temp;Humidity;BMP_temperature;BMP_pressure;BME280_temperature;BME280_humidity;BME280_pressure;Samples;Min_cycle;Max_cycle;Signal;HPM_P1;HPM_P2
2021/08/31 00:01:03;;;;;;;10.23;8.68;;;;;;;19.14;90.93;99615.34;1703941;83;21066;-68
2021/08/31 00:03:31;;;;;;;9.05;8.25;;;;;;;19.09;91.05;99622.05;1715428;83;21500;-68
2021/08/31 00:05:57;;;;;;;8.45;7.83;;;;;;;19.05;91.27;99614.47;1720680;83;21491;-68
2021/08/31 00:08:24;;;;;;;7.70;7.10;;;;;;;19.04;91.54;99616.07;1701704;83;21559;-68
2021/08/31 00:10:52;;;;;;;9.55;8.68;;;;;;;19.03;91.46;99605.01;1707620;83;21022;-68
2021/08/31 00:13:18;;;;;;;8.50;7.70;;;;;;;19.00;91.65;99607.67;1707933;83;21054;-67
2021/08/31 00:15:45;;;;;;;8.13;7.33;;;;;;;18.97;91.74;99610.92;1717032;83;21026;-68
2021/08/31 00:18:13;;;;;;;9.35;8.25;;;;;;;18.92;92.02;99610.08;1713995;83;21094;-67
2021/08/31 00:20:39;;;;;;;8.25;7.42;;;;;;;18.88;92.24;99614.38;1710656;83;21050;-69
2021/08/31 00:23:05;;;;;;;8.80;8.00;;;;;;;18.86;92.58;99610.58;1716728;83;20961;-68
2021/08/31 00:25:32;;;;;;;;;;;;;;;18.89;92.92;99613.29;1717408;83;21145;-68
2021/08/31 00:28:00;;;;;;;7.92;7.12;;;;;;;18.95;92.70;99618.47;1714794;83;20115;-67
2021/08/31 00:30:26;;;;;;;8.58;7.72;;;;;;;18.91;92.73;99621.42;1701813;83;21026;-68
2021/08/31 00:32:52;;;;;;;;;;;;;;;18.94;92.91;99633.58;1718834;83;21402;-69
2021/08/31 00:35:18;;;;;;;9.75;8.95;;;;;;;19.00;92.37;99636.58;1695587;83;20150;-68
2021/08/31 00:37:44;;;;;;;8.68;7.97;;;;;;;18.97;91.43;99645.22;1675613;83;21523;-68
2021/08/31 00:40:11;;;;;;;;;;;;;;;18.94;91.63;99647.08;1687313;83;20999;-67
2021/08/31 00:42:38;;;;;;;10.05;9.15;;;;;;;18.92;91.82;99644.63;1676554;85;20559;-69
2021/08/31 00:45:07;;;;;;;8.43;7.70;;;;;;;18.90;92.13;99650.03;1688262;83;20992;-68
2021/08/31 00:47:36;;;;;;;9.35;8.40;;;;;;;18.92;91.46;99648.69;1685320;83;21050;-69
2021/08/31 00:50:05;;;;;;;10.68;9.60;;;;;;;18.90;91.37;99655.43;1675147;83;21015;-68
2021/08/31 00:52:32;;;;;;;9.90;8.60;;;;;;;18.88;91.84;99652.98;1686341;83;21164;-68
2021/08/31 00:55:00;;;;;;;8.88;8.05;;;;;;;18.89;91.70;99653.79;1683490;85;21545;-68
2021/08/31 00:57:27;;;;;;;9.10;8.23;;;;;;;18.89;91.67;99647.84;1680518;85;20999;-68
2021/08/31 00:59:54;;;;;;;7.80;7.20;;;;;;;18.88;91.60;99651.63;1684690;84;21015;-67
2021/08/31 01:02:20;;;;;;;7.95;7.37;;;;;;;18.89;91.76;99653.25;1677762;85;21022;-67
2021/08/31 01:04:47;;;;;;;8.53;7.67;;;;;;;18.91;91.40;99652.48;1675901;85;21108;-68
2021/08/31 01:07:16;;;;;;;8.20;7.25;;;;;;;18.92;91.40;99662.19;1673381;85;21014;-67
2021/08/31 01:09:44;;;;;;;7.08;6.45;;;;;;;18.93;91.09;99657.59;1689656;84;21043;-68
2021/08/31 01:12:12;;;;;;;7.17;6.47;;;;;;;18.93;91.07;99665.69;1682556;84;20995;-68
2021/08/31 01:14:40;;;;;;;7.87;7.22;;;;;;;18.95;91.25;99666.24;1644491;87;21020;-68
2021/08/31 01:17:07;;;;;;;7.53;6.92;;;;;;;18.99;90.97;99666.83;1651366;86;21067;-68
2021/08/31 01:19:36;;;;;;;9.33;6.83;;;;;;;19.00;90.36;99677.09;1651972;86;21659;-68
2021/08/31 01:22:12;;;;;;;8.45;7.67;;;;;;;18.98;90.64;99673.84;1655247;86;21089;-69
2021/08/31 01:24:45;;;;;;;11.33;7.60;;;;;;;18.96;90.54;99674.09;1660537;85;20999;-68
2021/08/31 01:27:15;;;;;;;9.53;8.73;;;;;;;18.96;91.13;99674.64;1669753;85;21168;-68
2021/08/31 01:29:42;;;;;;;7.92;7.33;;;;;;;18.95;90.96;99678.39;1659082;85;21205;-69
2021/08/31 01:32:08;;;;;;;8.28;7.58;;;;;;;18.92;91.04;99679.73;1665919;85;21106;-69
2021/08/31 01:34:34;;;;;;;;;;;;;;;18.92;91.09;99672.98;1669778;85;21011;-68
2021/08/31 01:37:02;;;;;;;8.85;8.15;;;;;;;18.95;90.93;99675.70;1660175;86;20144;-68
2021/08/31 01:39:28;;;;;;;10.78;7.45;;;;;;;18.85;90.33;99675.09;1664348;86;21022;-69
2021/08/31 01:41:58;;;;;;;8.30;7.70;;;;;;;18.81;90.94;99670.75;1674229;86;21050;-68
2021/08/31 01:44:24;;;;;;;8.33;7.62;;;;;;;18.84;90.90;99673.48;1674107;86;21074;-68
2021/08/31 01:46:51;;;;;;;8.85;8.00;;;;;;;18.81;90.53;99668.59;1654735;86;21421;-67
2021/08/31 01:49:18;;;;;;;;;;;;;;;18.81;90.97;99678.04;1665245;86;21117;-67
2021/08/31 01:51:44;;;;;;;7.30;6.62;;;;;;;18.78;90.57;99679.34;1658798;86;20120;-68
2021/08/31 01:54:11;;;;;;;8.58;7.80;;;;;;;18.71;90.76;99687.39;1667658;86;21030;-68
2021/08/31 01:56:37;;;;;;;;;;;;;;;18.73;90.76;99694.69;1664816;86;20995;-67
2021/08/31 01:59:03;;;;;;;8.28;7.58;;;;;;;18.73;90.46;99698.20;1665454;85;20129;-69
2021/08/31 02:01:29;;;;;;;;;;;;;;;18.65;90.60;99691.94;1675495;86;21402;-69
2021/08/31 02:03:55;;;;;;;9.08;8.28;;;;;;;18.61;90.28;99693.50;1661344;86;20203;-68
2021/08/31 02:06:22;;;;;;;8.63;8.00;;;;;;;18.51;90.53;99700.17;1658604;86;21026;-67
2021/08/31 02:08:49;;;;;;;9.50;8.40;;;;;;;18.49;90.76;99701.22;1661859;86;21034;-68
2021/08/31 02:11:16;;;;;;;10.35;9.35;;;;;;;18.49;90.77;99697.17;1658965;85;21145;-68
2021/08/31 02:13:42;;;;;;;9.50;8.00;;;;;;;18.47;90.72;99697.16;1654563;86;21030;-68
2021/08/31 02:16:09;;;;;;;10.15;9.23;;;;;;;18.45;91.05;99685.27;1663118;86;20986;-68
2021/08/31 02:18:40;;;;;;;14.70;9.03;;;;;;;18.45;90.83;99689.86;1667790;86;20967;-67
2021/08/31 02:21:10;;;;;;;8.80;8.03;;;;;;;18.42;90.94;99691.71;1669947;86;21026;-67
2021/08/31 02:23:38;;;;;;;13.68;9.18;;;;;;;18.39;91.53;99696.29;1664420;85;21043;-67
2021/08/31 02:26:05;;;;;;;12.78;9.53;;;;;;;18.41;91.72;99693.61;1651767;86;21664;-69
2021/08/31 02:28:31;;;;;;;10.72;9.63;;;;;;;18.40;91.12;99689.30;1656580;86;21798;-67
2021/08/31 02:30:57;;;;;;;10.13;9.10;;;;;;;18.33;91.03;99688.69;1650426;86;21114;-67
2021/08/31 02:33:23;;;;;;;12.40;9.30;;;;;;;18.26;91.23;99695.62;1665175;85;21231;-68
2021/08/31 02:35:51;;;;;;;12.90;10.32;;;;;;;18.24;91.66;99701.00;1666222;85;21129;-68
2021/08/31 02:38:17;;;;;;;10.80;9.80;;;;;;;18.23;91.83;99701.55;1650842;85;21142;-68
2021/08/31 02:40:43;;;;;;;10.40;9.23;;;;;;;18.24;91.94;99691.02;1640393;87;21060;-67
2021/08/31 02:43:10;;;;;;;13.30;9.53;;;;;;;18.29;91.88;99687.57;1671979;86;21718;-67
2021/08/31 02:45:36;;;;;;;10.75;9.73;;;;;;;18.34;91.66;99684.09;1681177;85;21070;-67
2021/08/31 02:50:30;;;;;;;11.15;10.05;;;;;;;18.47;91.15;99691.77;1791199;78;23679;-67
2021/08/31 02:52:57;;;;;;;10.72;9.65;;;;;;;18.07;90.87;99646.62;1753255;80;21492;-68
2021/08/31 02:55:24;;;;;;;10.40;9.50;;;;;;;18.31;91.08;99688.13;1747486;79;21030;-68
2021/08/31 02:57:50;;;;;;;14.00;10.18;;;;;;;18.32;91.38;99692.98;1676911;84;21889;-68
2021/08/31 03:00:18;;;;;;;16.23;10.23;;;;;;;18.32;91.14;99690.28;1676579;84;21032;-68
2021/08/31 03:02:46;;;;;;;11.73;10.13;;;;;;;18.29;91.05;99701.06;1674011;84;21050;-68
2021/08/31 03:05:13;;;;;;;13.03;9.73;;;;;;;18.26;91.25;99709.11;1674740;84;21452;-68
2021/08/31 03:07:40;;;;;;;11.08;9.90;;;;;;;18.30;91.24;99713.46;1673332;84;21582;-68
2021/08/31 03:10:08;;;;;;;9.70;8.93;;;;;;;18.37;91.14;99711.37;1681290;84;21021;-68
2021/08/31 03:12:34;;;;;;;12.93;9.90;;;;;;;18.41;90.69;99714.38;1639585;85;21110;-69
2021/08/31 03:15:05;;;;;;;11.83;10.10;;;;;;;18.44;90.39;99713.34;1646836;86;21116;-68
2021/08/31 03:17:31;;;;;;;11.18;9.40;;;;;;;18.42;89.85;99719.53;1626363;86;21053;-67
2021/08/31 03:20:00;;;;;;;10.93;9.50;;;;;;;18.39;90.15;99719.23;1638851;86;21071;-69
2021/08/31 03:22:26;;;;;;;10.95;9.85;;;;;;;18.40;90.19;99728.42;1649548;86;21066;-67
2021/08/31 03:24:52;;;;;;;12.78;9.28;;;;;;;18.47;90.04;99724.95;1670523;84;21067;-68
2021/08/31 03:27:18;;;;;;;;;;;;;;;18.52;89.41;99727.45;1666736;84;21125;-69
2021/08/31 03:29:45;;;;;;;10.35;9.35;;;;;;;18.51;88.77;99729.31;1666626;84;20131;-71
2021/08/31 03:32:11;;;;;;;10.65;9.65;;;;;;;18.46;89.05;99731.98;1661465;84;21528;-69
2021/08/31 03:34:37;;;;;;;9.78;8.90;;;;;;;18.45;88.52;99728.98;1687204;82;21061;-67
2021/08/31 03:37:05;;;;;;;10.05;9.13;;;;;;;18.40;88.52;99728.42;1692621;84;21720;-70
2021/08/31 03:39:31;;;;;;;;;;;;;;;18.31;88.67;99721.85;1685915;84;21108;-69
2021/08/31 03:41:58;;;;;;;12.85;9.00;;;;;;;18.34;88.70;99725.37;1683416;83;20182;-68
2021/08/31 03:44:24;;;;;;;10.08;9.00;;;;;;;18.27;88.66;99722.89;1682624;84;21033;-69
2021/08/31 03:46:52;;;;;;;10.85;9.75;;;;;;;18.24;88.42;99725.28;1680703;84;21056;-69
2021/08/31 03:49:19;;;;;;;9.65;8.53;;;;;;;18.19;88.47;99725.21;1678314;84;21085;-67
2021/08/31 03:51:46;;;;;;;12.07;9.48;;;;;;;18.15;89.07;99722.75;1662281;84;20989;-69
2021/08/31 03:54:14;;;;;;;9.20;8.40;;;;;;;18.11;89.19;99721.09;1665922;84;21144;-69
2021/08/31 03:56:40;;;;;;;9.93;9.03;;;;;;;18.12;89.25;99722.73;1671670;83;21090;-68
2021/08/31 03:59:07;;;;;;;9.93;8.90;;;;;;;18.13;89.03;99722.19;1671300;84;21057;-69
2021/08/31 04:01:33;;;;;;;;;;;;;;;18.09;88.96;99721.34;1698424;83;21121;-68
2021/08/31 04:04:00;;;;;;;;;;;;;;;18.07;88.77;99722.12;1689133;84;20193;-69
2021/08/31 04:06:26;;;;;;;9.60;8.80;;;;;;;18.06;89.20;99727.77;1685059;84;20178;-69
2021/08/31 04:08:52;;;;;;;11.35;8.68;;;;;;;18.02;88.89;99722.60;1679828;84;21539;-69
2021/08/31 04:11:18;;;;;;;9.10;8.20;;;;;;;18.01;88.55;99729.08;1687259;84;21050;-69
2021/08/31 04:13:50;;;;;;;9.10;8.00;;;;;;;17.96;88.49;99736.56;1657992;84;21192;-69
2021/08/31 04:16:16;;;;;;;8.38;7.60;;;;;;;17.95;88.24;99732.25;1650712;84;21077;-68
2021/08/31 04:18:42;;;;;;;9.43;8.25;;;;;;;17.97;88.09;99742.76;1668340;84;21503;-69
2021/08/31 04:21:10;;;;;;;8.55;7.85;;;;;;;17.93;88.13;99742.98;1668586;86;21551;-68
2021/08/31 04:23:38;;;;;;;9.15;8.35;;;;;;;17.94;88.86;99737.34;1666815;84;21020;-69
2021/08/31 04:26:07;;;;;;;7.95;7.15;;;;;;;18.02;88.63;99739.59;1657002;84;21013;-70
2021/08/31 04:28:36;;;;;;;8.58;7.25;;;;;;;18.08;87.66;99732.37;1657305;84;21651;-69
2021/08/31 04:31:02;;;;;;;;;;;;;;;18.09;87.42;99732.67;1672860;84;21177;-69
2021/08/31 04:33:28;;;;;;;9.30;7.47;;;;;;;18.08;86.96;99737.25;1651350;85;20163;-70
2021/08/31 04:35:56;;;;;;;7.65;7.05;;;;;;;18.03;87.05;99740.42;1621894;86;21087;-69
2021/08/31 04:38:22;;;;;;;8.15;7.45;;;;;;;18.01;86.96;99737.97;1637036;86;21149;-68
2021/08/31 04:40:49;;;;;;;9.65;7.12;;;;;;;18.02;87.61;99738.23;1644806;86;21073;-69
2021/08/31 04:43:16;;;;;;;6.50;5.90;;;;;;;18.07;87.04;99742.35;1636040;86;21588;-68
2021/08/31 04:45:45;;;;;;;7.55;6.95;;;;;;;18.12;87.10;99736.22;1641251;86;21670;-69
2021/08/31 04:48:12;;;;;;;6.75;6.25;;;;;;;18.16;86.54;99733.80;1643534;86;21093;-69
2021/08/31 04:50:38;;;;;;;6.70;6.10;;;;;;;18.12;85.93;99731.33;1636079;86;21571;-68
2021/08/31 04:53:05;;;;;;;7.05;5.92;;;;;;;18.07;85.04;99734.80;1627069;86;21124;-69
2021/08/31 04:55:32;;;;;;;;;;;;;;;18.01;84.73;99735.82;1646169;86;21076;-69
2021/08/31 04:57:58;;;;;;;6.67;5.90;;;;;;;17.99;84.61;99738.77;1643705;85;20155;-69
2021/08/31 05:00:28;;;;;;;8.88;6.08;;;;;;;18.03;84.50;99745.28;1648384;85;21649;-69
2021/08/31 05:02:56;;;;;;;7.80;6.90;;;;;;;18.33;82.70;99744.50;1655236;85;21046;-69
2021/08/31 05:05:23;;;;;;;9.70;5.95;;;;;;;18.57;82.04;99744.50;1657941;85;21143;-69
2021/08/31 05:07:50;;;;;;;5.37;4.35;;;;;;;19.08;80.34;99746.84;1660994;85;21106;-69
2021/08/31 05:10:17;;;;;;;4.75;4.33;;;;;;;19.85;77.05;99741.88;1660868;85;21085;-69
2021/08/31 05:12:44;;;;;;;4.35;4.05;;;;;;;20.64;71.42;99738.59;1659960;84;21055;-68
2021/08/31 05:15:11;;;;;;;5.37;4.97;;;;;;;21.36;67.88;99742.61;1659281;85;21047;-68
2021/08/31 05:17:38;;;;;;;5.65;4.58;;;;;;;22.02;64.94;99748.92;1659719;85;21106;-71
2021/08/31 05:20:08;;;;;;;5.05;4.75;;;;;;;22.13;62.25;99743.72;1660482;85;21089;-65
2021/08/31 05:22:35;;;;;;;4.78;4.47;;;;;;;22.13;62.49;99755.92;1653932;84;20971;-64
2021/08/31 05:25:03;;;;;;;5.85;5.37;;;;;;;22.34;60.49;99758.05;1660992;85;21351;-67
2021/08/31 05:27:31;;;;;;;4.03;3.72;;;;;;;22.52;61.11;99759.27;1661696;85;21089;-64
2021/08/31 05:29:58;;;;;;;6.22;3.67;;;;;;;22.98;59.36;99752.67;1655423;85;21018;-65
2021/08/31 05:32:25;;;;;;;4.90;4.15;;;;;;;23.36;58.09;99743.36;1656437;85;21147;-63
2021/08/31 05:34:51;;;;;;;4.65;4.25;;;;;;;23.70;55.26;99743.28;1666958;84;21668;-72
2021/08/31 05:37:18;;;;;;;3.55;3.35;;;;;;;24.00;54.44;99745.40;1645135;85;21133;-71
2021/08/31 05:39:44;;;;;;;4.67;3.00;;;;;;;24.24;54.56;99741.23;1654193;85;20998;-72
2021/08/31 05:42:11;;;;;;;3.42;3.12;;;;;;;24.45;53.07;99743.14;1659500;81;21070;-75
2021/08/31 05:44:39;;;;;;;4.62;2.83;;;;;;;24.51;52.35;99740.59;1656423;84;21779;-73
2021/08/31 05:47:09;;;;;;;3.42;3.02;;;;;;;24.42;51.07;99745.08;1652619;85;21083;-73
2021/08/31 05:49:37;;;;;;;2.95;2.67;;;;;;;24.22;53.90;99740.20;1650750;85;21088;-74
2021/08/31 05:52:05;;;;;;;3.08;2.87;;;;;;;24.31;52.37;99742.25;1662439;85;21044;-72
2021/08/31 05:54:33;;;;;;;3.45;3.25;;;;;;;24.49;52.07;99749.61;1656824;85;21066;-74
2021/08/31 05:57:04;;;;;;;5.97;3.95;;;;;;;24.64;50.71;99746.68;1656959;85;21036;-73
2021/08/31 05:59:29;;;;;;;6.05;3.17;;;;;;;24.65;51.58;99740.11;1661097;85;21101;-73
2021/08/31 06:01:55;;;;;;;2.75;2.65;;;;;;;24.62;50.34;99739.36;1660208;85;21072;-73
2021/08/31 06:04:25;;;;;;;3.58;2.72;;;;;;;24.53;49.75;99739.77;1636660;85;21665;-73
2021/08/31 06:06:52;;;;;;;2.87;2.67;;;;;;;24.53;50.70;99737.05;1663443;85;21622;-72
2021/08/31 06:09:18;;;;;;;5.37;2.83;;;;;;;24.80;49.22;99732.23;1656740;85;21137;-74
2021/08/31 06:11:45;;;;;;;1.60;1.50;;;;;;;24.99;49.60;99742.30;1662057;85;22086;-72
2021/08/31 06:14:11;;;;;;;2.87;2.70;;;;;;;25.03;48.34;99737.33;1663393;85;21074;-73
2021/08/31 06:16:38;;;;;;;3.50;2.25;;;;;;;24.99;47.64;99736.28;1660239;85;21166;-74
2021/08/31 06:19:04;;;;;;;2.87;2.45;;;;;;;24.76;48.43;99739.40;1653656;85;21133;-73
2021/08/31 06:21:31;;;;;;;2.05;1.95;;;;;;;24.49;48.47;99738.72;1646222;85;21085;-74
2021/08/31 06:23:57;;;;;;;4.30;1.77;;;;;;;24.31;48.50;99733.52;1655970;86;21371;-74
2021/08/31 06:26:24;;;;;;;1.67;1.57;;;;;;;24.25;49.10;99735.50;1654109;85;21519;-76
2021/08/31 06:28:49;;;;;;;2.65;1.60;;;;;;;24.10;49.82;99739.25;1655944;85;21115;-74
2021/08/31 06:31:18;;;;;;;3.25;2.52;;;;;;;24.09;49.86;99739.00;1660725;85;21114;-72
2021/08/31 06:33:46;;;;;;;1.87;1.77;;;;;;;24.09;49.51;99736.81;1661363;84;21064;-74
2021/08/31 06:36:15;;;;;;;1.45;1.45;;;;;;;24.11;49.97;99736.00;1647985;85;21602;-75
2021/08/31 06:38:43;;;;;;;2.60;2.45;;;;;;;24.11;50.25;99744.16;1665916;84;21129;-74
2021/08/31 06:41:09;;;;;;;2.70;2.50;;;;;;;24.24;49.59;99748.05;1674106;84;21029;-73
2021/08/31 06:43:37;;;;;;;3.75;2.33;;;;;;;24.32;49.06;99741.13;1676007;84;21640;-73
2021/08/31 06:46:04;;;;;;;2.35;1.82;;;;;;;24.31;49.16;99738.97;1671452;85;21545;-75
2021/08/31 06:48:31;;;;;;;3.17;2.00;;;;;;;24.23;49.34;99745.88;1664102;84;21096;-74
2021/08/31 06:50:57;;;;;;;2.60;1.98;;;;;;;24.21;49.76;99746.73;1661694;84;21088;-73
2021/08/31 06:53:24;;;;;;;5.08;2.92;;;;;;;24.30;49.60;99740.09;1671233;84;21570;-74
2021/08/31 06:55:51;;;;;;;3.58;2.17;;;;;;;24.31;49.90;99744.97;1676178;84;21542;-74
2021/08/31 06:58:17;;;;;;;3.65;2.17;;;;;;;24.26;49.75;99755.37;1668436;84;21568;-75
2021/08/31 07:00:43;;;;;;;3.22;2.33;;;;;;;23.94;49.98;99754.19;1668272;84;21084;-73
2021/08/31 07:03:09;;;;;;;2.35;2.15;;;;;;;23.58;51.59;99755.10;1667030;85;20989;-76
2021/08/31 07:05:35;;;;;;;2.47;2.30;;;;;;;23.37;51.86;99747.72;1664555;84;21014;-73
2021/08/31 07:08:04;;;;;;;2.80;2.52;;;;;;;23.10;52.10;99753.95;1654627;84;21123;-79
2021/08/31 07:10:31;;;;;;;2.60;2.40;;;;;;;22.75;52.56;99753.66;1663979;84;21021;-73
2021/08/31 07:12:57;;;;;;;7.92;3.25;;;;;;;22.37;54.04;99758.02;1669519;84;21032;-72
2021/08/31 07:15:24;;;;;;;3.05;2.80;;;;;;;22.21;55.16;99758.59;1670659;84;21033;-74
2021/08/31 07:17:49;;;;;;;2.90;2.08;;;;;;;22.14;54.87;99753.49;1662473;84;21134;-74
2021/08/31 07:20:15;;;;;;;3.08;2.62;;;;;;;22.00;55.54;99757.89;1673924;84;21121;-73
2021/08/31 07:22:43;;;;;;;2.20;2.10;;;;;;;21.93;55.49;99752.78;1670906;84;21592;-74
2021/08/31 07:25:09;;;;;;;2.67;2.35;;;;;;;21.89;54.75;99764.73;1664288;84;21095;-73
2021/08/31 07:27:37;;;;;;;6.33;2.02;;;;;;;21.87;55.18;99756.58;1663125;84;21072;-72
2021/08/31 07:30:10;;;;;;;1.92;1.82;;;;;;;21.79;55.16;99756.61;1663349;84;21108;-73
2021/08/31 07:32:37;;;;;;;2.90;2.02;;;;;;;21.76;55.31;99757.19;1668343;84;21049;-74
2021/08/31 07:35:05;;;;;;;6.92;3.37;;;;;;;21.73;56.05;99768.03;1665948;84;21560;-74
2021/08/31 07:37:32;;;;;;;3.83;1.77;;;;;;;21.72;56.16;99774.56;1669976;84;21631;-73
2021/08/31 07:39:58;;;;;;;6.30;3.33;;;;;;;21.70;56.93;99771.83;1671963;84;21025;-73
2021/08/31 07:42:24;;;;;;;3.15;2.58;;;;;;;21.66;55.82;99776.19;1659699;84;20986;-73
2021/08/31 07:44:51;;;;;;;3.72;2.50;;;;;;;21.63;55.90;99778.11;1664753;84;21595;-73
2021/08/31 07:47:18;;;;;;;2.37;2.27;;;;;;;21.63;56.12;99778.11;1657365;84;21163;-75
2021/08/31 07:49:44;;;;;;;2.77;2.58;;;;;;;21.64;56.24;99780.53;1672833;84;21112;-75
2021/08/31 07:52:10;;;;;;;2.30;2.10;;;;;;;21.66;55.81;99774.31;1676409;84;21029;-73
2021/08/31 07:54:37;;;;;;;3.67;2.62;;;;;;;21.63;55.14;99772.69;1678221;84;21530;-74
2021/08/31 07:57:04;;;;;;;1.62;1.42;;;;;;;21.58;55.79;99774.86;1678189;84;21084;-75
2021/08/31 07:59:32;;;;;;;2.47;2.37;;;;;;;21.57;55.42;99777.31;1632660;85;21116;-73
2021/08/31 08:01:58;;;;;;;2.33;1.65;;;;;;;21.60;54.92;99769.97;1678365;84;21006;-72
2021/08/31 08:04:26;;;;;;;2.17;1.98;;;;;;;21.65;55.40;99776.74;1659424;84;21585;-74
2021/08/31 08:06:52;;;;;;;3.62;3.42;;;;;;;21.70;55.15;99773.19;1676500;84;21466;-75
2021/08/31 08:09:18;;;;;;;3.10;2.80;;;;;;;21.76;54.99;99777.53;1675224;84;21076;-73
2021/08/31 08:11:46;;;;;;;2.45;1.82;;;;;;;21.82;55.43;99781.05;1671279;84;21015;-73
2021/08/31 08:14:13;;;;;;;3.17;2.30;;;;;;;21.84;56.36;99773.44;1673495;84;21015;-74
2021/08/31 08:16:40;;;;;;;3.08;2.55;;;;;;;21.89;55.91;99773.42;1663327;85;21587;-74
2021/08/31 08:19:06;;;;;;;2.55;2.35;;;;;;;21.92;55.21;99770.94;1671271;84;21073;-73
2021/08/31 08:21:33;;;;;;;2.80;2.60;;;;;;;21.95;54.70;99778.54;1672835;85;20979;-73
2021/08/31 08:23:58;;;;;;;3.50;2.67;;;;;;;21.94;54.70;99772.03;1672762;84;21019;-74
2021/08/31 08:26:27;;;;;;;2.33;2.22;;;;;;;21.92;54.52;99774.20;1670364;84;21055;-74
2021/08/31 08:28:53;;;;;;;1.60;1.60;;;;;;;21.94;54.39;99773.38;1672080;84;21051;-74
2021/08/31 08:31:20;;;;;;;3.60;1.67;;;;;;;21.94;54.06;99777.45;1665552;83;21071;-75
2021/08/31 08:33:46;;;;;;;1.90;1.80;;;;;;;21.94;53.91;99776.09;1670701;83;21019;-75
2021/08/31 08:36:12;;;;;;;3.62;1.60;;;;;;;21.96;52.76;99775.27;1667167;84;21550;-75
2021/08/31 08:38:39;;;;;;;5.47;1.70;;;;;;;21.94;52.52;99764.72;1618794;87;21611;-74
2021/08/31 08:41:06;;;;;;;3.72;2.08;;;;;;;21.91;52.78;99774.77;1607839;87;21024;-74
2021/08/31 08:43:37;;;;;;;2.58;2.15;;;;;;;21.92;52.47;99780.44;1618961;87;21037;-73
2021/08/31 08:46:09;;;;;;;2.52;1.92;;;;;;;21.92;52.96;99786.41;1627460;85;21007;-74
2021/08/31 08:48:35;;;;;;;1.35;1.22;;;;;;;21.74;53.22;99758.02;1637724;87;21055;-73
2021/08/31 08:51:05;;;;;;;1.52;1.50;;;;;;;21.99;53.14;99793.72;1623285;86;21215;-73
2021/08/31 08:53:34;;;;;;;2.02;1.27;;;;;;;22.04;52.38;99786.09;1665294;85;21138;-74
2021/08/31 08:56:02;;;;;;;2.10;2.00;;;;;;;22.02;51.45;99789.63;1673265;85;21062;-73
2021/08/31 08:58:29;;;;;;;1.80;1.70;;;;;;;21.78;52.31;99755.01;1677680;85;21012;-74
2021/08/31 09:01:08;;;;;;;2.20;1.42;;;;;;;22.02;52.58;99779.61;1677945;83;21001;-74
2021/08/31 09:03:46;;;;;;;1.72;1.62;;;;;;;22.07;52.96;99776.05;1707770;83;21033;-73
2021/08/31 09:06:21;;;;;;;1.10;1.02;;;;;;;22.10;52.70;99770.08;1695503;83;21049;-73
2021/08/31 09:08:58;;;;;;;0.98;0.98;;;;;;;22.11;52.30;99776.59;1702140;83;21562;-73
2021/08/31 09:11:33;;;;;;;3.42;1.20;;;;;;;22.07;52.39;99776.85;1712740;83;20997;-73
2021/08/31 09:14:27;;;;;;;0.90;0.88;;;;;;;22.07;52.23;99781.48;1702806;83;21008;-75
2021/08/31 09:17:03;;;;;;;1.70;0.93;;;;;;;22.06;52.15;99778.51;1691746;83;21052;-74
2021/08/31 09:19:38;;;;;;;1.05;1.05;;;;;;;22.06;52.21;99783.38;1703590;83;21084;-73
2021/08/31 09:22:16;;;;;;;1.42;1.20;;;;;;;22.05;51.40;99785.02;1702801;83;21092;-75
2021/08/31 09:25:09;;;;;;;1.27;1.25;;;;;;;22.02;51.76;99779.61;1709182;83;21605;-73
2021/08/31 09:27:40;;;;;;;2.00;1.27;;;;;;;22.03;52.46;99782.58;1656804;83;21473;-74
2021/08/31 09:30:26;;;;;;;2.12;1.92;;;;;;;22.05;51.91;99775.52;1709195;83;21095;-73
2021/08/31 09:33:12;;;;;;;2.42;1.50;;;;;;;22.06;51.47;99781.22;1699830;83;21131;-74
2021/08/31 09:35:47;;;;;;;2.00;1.85;;;;;;;22.07;51.79;99779.56;1699665;83;21138;-73
2021/08/31 09:38:16;;;;;;;1.40;1.30;;;;;;;22.12;51.87;99783.62;1691970;83;21671;-75
2021/08/31 09:40:53;;;;;;;3.10;1.42;;;;;;;22.20;52.36;99784.13;1712001;83;20977;-75
2021/08/31 09:43:26;;;;;;;2.02;0.93;;;;;;;22.29;51.16;99782.49;1710428;83;21005;-74
2021/08/31 09:45:51;;;;;;;1.45;1.17;;;;;;;22.32;50.78;99786.83;1708871;83;20988;-74
2021/08/31 09:48:20;;;;;;;1.67;1.05;;;;;;;22.35;51.03;99793.03;1702772;83;21060;-75
2021/08/31 09:50:50;;;;;;;1.95;1.22;;;;;;;22.37;51.44;99788.68;1704369;83;20987;-76
2021/08/31 09:53:29;;;;;;;1.62;1.50;;;;;;;22.40;52.27;99784.06;1685423;83;20991;-74
2021/08/31 09:56:06;;;;;;;4.20;2.37;;;;;;;22.40;51.94;99794.13;1689498;83;21025;-75
2021/08/31 09:58:35;;;;;;;1.30;1.25;;;;;;;22.43;52.44;99790.82;1699627;84;21108;-76
2021/08/31 10:01:01;;;;;;;1.35;1.25;;;;;;;22.48;52.09;99797.03;1683200;83;21075;-75
2021/08/31 10:03:29;;;;;;;1.72;1.17;;;;;;;22.51;50.09;99794.33;1699185;84;21042;-76
2021/08/31 10:06:00;;;;;;;1.30;0.98;;;;;;;22.51;50.72;99791.61;1663212;84;21225;-74
2021/08/31 10:08:35;;;;;;;1.17;0.90;;;;;;;22.50;50.67;99785.90;1671940;84;21075;-75
2021/08/31 10:11:03;;;;;;;0.68;0.60;;;;;;;22.55;50.31;99792.66;1670069;84;20982;-74
2021/08/31 10:13:38;;;;;;;5.15;0.70;;;;;;;22.65;50.17;99796.66;1666885;84;21003;-76
2021/08/31 10:16:06;;;;;;;1.17;1.07;;;;;;;22.70;49.07;99793.92;1666109;84;20971;-75
2021/08/31 10:18:33;;;;;;;0.55;0.55;;;;;;;22.76;47.65;99798.77;1676823;84;21083;-75
2021/08/31 10:21:13;;;;;;;2.35;1.00;;;;;;;22.72;47.67;99797.72;1683242;84;21074;-76
2021/08/31 10:23:46;;;;;;;1.35;0.57;;;;;;;22.61;47.20;99799.68;1669748;84;21102;-74
2021/08/31 10:26:28;;;;;;;0.60;0.40;;;;;;;22.51;47.23;99798.40;1675793;83;21106;-74
2021/08/31 10:29:23;;;;;;;1.75;0.62;;;;;;;22.42;47.93;99791.93;1661254;84;21027;-76
2021/08/31 10:31:57;;;;;;;1.30;0.68;;;;;;;22.39;47.89;99793.84;1671169;84;21123;-75
2021/08/31 10:34:39;;;;;;;1.05;0.45;;;;;;;22.40;47.83;99804.42;1675048;84;21080;-76
2021/08/31 10:37:14;;;;;;;2.22;0.70;;;;;;;22.47;46.97;99802.22;1668166;84;21141;-74
2021/08/31 10:39:52;;;;;;;5.10;0.70;;;;;;;22.51;46.97;99803.83;1677220;83;21083;-75
2021/08/31 10:42:33;;;;;;;1.57;1.20;;;;;;;22.54;46.66;99803.25;1681421;84;21824;-75
2021/08/31 10:45:07;;;;;;;1.47;0.93;;;;;;;22.53;46.56;99800.28;1677281;85;21072;-76
2021/08/31 10:47:36;;;;;;;4.42;1.20;;;;;;;22.47;46.70;99801.38;1646299;86;21527;-75
2021/08/31 10:50:09;;;;;;;0.80;0.78;;;;;;;22.38;47.34;99800.34;1644792;85;21710;-76
2021/08/31 10:52:45;;;;;;;1.60;0.85;;;;;;;22.34;47.15;99803.64;1662481;84;21039;-74
2021/08/31 10:55:31;;;;;;;2.87;0.90;;;;;;;22.34;47.20;99805.55;1646164;87;21035;-76
2021/08/31 10:58:01;;;;;;;1.60;0.80;;;;;;;22.37;47.59;99800.91;1635310;87;21070;-75
2021/08/31 11:00:34;;;;;;;1.65;0.50;;;;;;;22.46;47.95;99799.78;1648958;87;21134;-74
2021/08/31 11:03:02;;;;;;;0.57;0.57;;;;;;;22.50;47.60;99800.84;1642554;87;21122;-75
2021/08/31 11:05:33;;;;;;;0.55;0.55;;;;;;;22.54;47.64;99798.62;1641500;86;21093;-75
2021/08/31 11:08:05;;;;;;;0.60;0.60;;;;;;;22.55;47.58;99807.05;1642965;87;21083;-75
2021/08/31 11:10:37;;;;;;;0.53;0.50;;;;;;;22.53;46.95;99808.44;1628361;87;21031;-73
2021/08/31 11:13:22;;;;;;;1.30;0.82;;;;;;;22.50;47.45;99803.55;1642923;87;21114;-73
2021/08/31 11:15:49;;;;;;;5.10;0.80;;;;;;;22.52;47.94;99802.72;1637476;87;21579;-75
2021/08/31 11:18:21;;;;;;;2.20;1.72;;;;;;;22.51;47.07;99811.98;1642828;87;21099;-76
2021/08/31 11:20:48;;;;;;;1.15;1.05;;;;;;;22.42;47.31;99814.45;1648175;87;21047;-75
2021/08/31 11:23:19;;;;;;;0.55;0.42;;;;;;;22.33;47.84;99811.50;1648119;87;21153;-75
2021/08/31 11:25:56;;;;;;;1.10;0.80;;;;;;;22.29;48.11;99814.52;1644014;87;21047;-74
2021/08/31 11:28:27;;;;;;;1.25;0.60;;;;;;;22.30;48.13;99811.25;1650049;87;21117;-75
2021/08/31 11:31:06;;;;;;;0.70;0.70;;;;;;;22.29;48.67;99809.09;1642930;87;21043;-73
2021/08/31 11:33:37;;;;;;;1.17;0.50;;;;;;;22.35;47.82;99805.25;1652015;87;21080;-76
2021/08/31 11:36:08;;;;;;;2.50;0.68;;;;;;;22.37;47.81;99805.53;1650172;87;21559;-73
2021/08/31 11:38:39;;;;;;;0.85;0.60;;;;;;;22.42;48.20;99806.87;1651109;87;21142;-74
2021/08/31 11:41:34;;;;;;;0.40;0.40;;;;;;;22.45;47.89;99811.19;1643498;87;21079;-72
2021/08/31 11:44:21;;;;;;;0.82;0.70;;;;;;;22.47;48.21;99806.29;1630689;87;21112;-74